Time;durP1;ratioP1;P1;durP2;ratioP2;P2;SDS_P1;SDS_P2;PMS_P1;PMS_P2;Temp;Humidity;BMP_temperature;BMP_pressure;BME280_temperature;BME280_humidity;BME280_pressure;Samples;Min_cycle;Max_cycle;Signal;HPM_P1;HPM_P2
2023/08/22 00:00:10;;;;;;;1.52;1.42;;;;;22.60;96484.00;;;;5134076;28;20191;-59
2023/08/22 00:02:37;;;;;;;1.92;1.83;;;;;22.70;96490.00;;;;5134469;28;20197;-59
2023/08/22 00:05:06;;;;;;;0.95;0.95;;;;;22.60;96489.00;;;;5134016;28;20262;-59
2023/08/22 00:07:33;;;;;;;1.45;1.33;;;;;22.50;96479.00;;;;5134277;28;20209;-59
2023/08/22 00:10:01;;;;;;;1.70;1.63;;;;;22.50;96484.00;;;;5134286;28;20209;-59
2023/08/22 00:12:29;;;;;;;1.60;1.50;;;;;22.40;96476.00;;;;5133985;28;20553;-59
2023/08/22 00:14:56;;;;;;;1.98;1.77;;;;;22.40;96484.00;;;;5134170;28;20660;-59
2023/08/22 00:17:25;;;;;;;1.15;1.15;;;;;22.40;96480.00;;;;5134076;28;20232;-59
2023/08/22 00:19:52;;;;;;;0.88;0.88;;;;;22.30;96487.00;;;;5133960;28;20672;-59
2023/08/22 00:22:20;;;;;;;5.65;2.25;;;;;22.20;96478.00;;;;5134055;28;20194;-59
2023/08/22 00:24:48;;;;;;;1.80;1.70;;;;;22.20;96480.00;;;;5134016;28;20193;-59
2023/08/22 00:27:16;;;;;;;1.88;1.77;;;;;22.20;96480.00;;;;5134132;28;20308;-59
2023/08/22 00:29:43;;;;;;;2.33;2.10;;;;;22.20;96471.00;;;;5133921;28;20599;-60
2023/08/22 00:32:11;;;;;;;1.55;1.45;;;;;22.10;96467.00;;;;5133885;27;20197;-59
2023/08/22 00:34:39;;;;;;;1.02;1.02;;;;;22.10;96470.00;;;;5137823;27;20265;-60
2023/08/22 00:37:07;;;;;;;0.80;0.80;;;;;22.10;96466.00;;;;5138148;27;20233;-59
2023/08/22 00:39:35;;;;;;;1.15;1.15;;;;;22.00;96466.00;;;;5137210;27;20276;-59
2023/08/22 00:42:02;;;;;;;1.65;1.55;;;;;22.10;96464.00;;;;5137818;27;20194;-59
2023/08/22 00:44:30;;;;;;;1.52;1.38;;;;;22.10;96459.00;;;;5138036;27;20217;-59
2023/08/22 00:46:57;;;;;;;0.93;0.93;;;;;22.10;96459.00;;;;5137767;27;20209;-59
2023/08/22 00:49:25;;;;;;;2.20;2.05;;;;;22.00;96460.00;;;;5138130;27;20204;-59
2023/08/22 00:51:54;;;;;;;1.67;1.58;;;;;22.00;96453.00;;;;5137627;27;20675;-60
2023/08/22 00:54:22;;;;;;;1.23;1.23;;;;;22.10;96456.00;;;;5137570;27;20263;-59
2023/08/22 00:56:49;;;;;;;2.17;1.40;;;;;21.90;96456.00;;;;5137625;27;20220;-59
2023/08/22 00:59:17;;;;;;;2.15;1.63;;;;;21.70;96453.00;;;;5138069;27;20181;-59
2023/08/22 01:01:45;;;;;;;1.30;1.25;;;;;21.90;96451.00;;;;5136222;27;20197;-59
2023/08/22 01:04:12;;;;;;;0.90;0.90;;;;;21.90;96451.00;;;;5137327;27;20201;-59
2023/08/22 01:06:47;;;;;;;2.00;1.73;;;;;21.90;96453.00;;;;5137473;27;20205;-59
2023/08/22 01:09:22;;;;;;;1.67;1.58;;;;;21.90;96441.00;;;;5137568;27;20519;-59
2023/08/22 01:11:52;;;;;;;1.17;1.17;;;;;21.90;96439.00;;;;5137348;27;20496;-59
2023/08/22 01:14:23;;;;;;;1.67;1.58;;;;;21.80;96429.00;;;;5137406;27;20186;-59
2023/08/22 01:16:52;;;;;;;1.55;1.23;;;;;21.80;96438.00;;;;5137416;27;20221;-60
2023/08/22 01:19:20;;;;;;;3.67;1.73;;;;;21.70;96441.00;;;;5137425;27;20220;-59
2023/08/22 01:21:51;;;;;;;1.85;1.75;;;;;21.70;96434.00;;;;5137220;27;20185;-60
2023/08/22 01:24:19;;;;;;;1.75;1.60;;;;;21.80;96434.00;;;;5137628;27;20182;-59
2023/08/22 01:26:47;;;;;;;1.55;1.45;;;;;21.70;96434.00;;;;5136783;27;20214;-59
2023/08/22 01:29:19;;;;;;;1.30;1.23;;;;;21.60;96442.00;;;;5137040;27;20300;-59
2023/08/22 01:31:55;;;;;;;1.83;1.73;;;;;21.60;96445.00;;;;5137492;27;20182;-59
2023/08/22 01:34:28;;;;;;;1.95;1.85;;;;;21.70;96443.00;;;;5137204;27;20184;-59
2023/08/22 01:36:58;;;;;;;2.10;1.90;;;;;21.60;96443.00;;;;5136897;27;20213;-59
2023/08/22 01:39:27;;;;;;;1.00;1.00;;;;;21.60;96434.00;;;;5137172;27;20184;-59
2023/08/22 01:41:57;;;;;;;2.08;1.90;;;;;21.60;96438.00;;;;5137137;27;20189;-59
2023/08/22 01:44:25;;;;;;;1.55;1.45;;;;;21.40;96433.00;;;;5136297;27;20189;-59
2023/08/22 01:46:52;;;;;;;1.75;1.65;;;;;21.30;96431.00;;;;5136565;27;20562;-59
2023/08/22 01:49:20;;;;;;;4.55;2.33;;;;;21.40;96427.00;;;;5136758;27;20216;-59
2023/08/22 01:51:47;;;;;;;1.73;1.63;;;;;21.30;96423.00;;;;5136584;27;20193;-59
2023/08/22 01:54:16;;;;;;;1.15;1.15;;;;;21.40;96425.00;;;;5136554;27;20185;-59
2023/08/22 01:56:43;;;;;;;1.85;1.58;;;;;21.30;96427.00;;;;5136536;27;20683;-59
2023/08/22 01:59:12;;;;;;;2.47;2.38;;;;;21.30;96423.00;;;;5136435;27;20186;-59
2023/08/22 02:01:39;;;;;;;1.75;1.38;;;;;21.40;96426.00;;;;5136390;27;20189;-60
2023/08/22 02:04:06;;;;;;;1.05;1.05;;;;;21.30;96421.00;;;;5136182;27;20197;-59
2023/08/22 02:06:34;;;;;;;1.52;1.48;;;;;21.30;96409.00;;;;5136166;27;20214;-59
2023/08/22 02:09:01;;;;;;;1.55;1.45;;;;;21.30;96416.00;;;;5136309;27;20213;-59
2023/08/22 02:11:30;;;;;;;1.00;1.00;;;;;21.20;96408.00;;;;5136185;27;20193;-59
2023/08/22 02:13:57;;;;;;;2.22;1.92;;;;;21.00;96415.00;;;;5136197;27;20189;-59
2023/08/22 02:16:25;;;;;;;1.65;1.55;;;;;21.00;96418.00;;;;5137810;27;20213;-60
2023/08/22 02:18:52;;;;;;;2.17;1.20;;;;;21.00;96412.00;;;;5135795;27;20684;-59
2023/08/22 02:21:20;;;;;;;1.48;1.38;;;;;21.00;96414.00;;;;5136211;27;20212;-59
2023/08/22 02:23:47;;;;;;;1.45;1.35;;;;;21.00;96418.00;;;;5136074;27;20199;-59
2023/08/22 02:26:16;;;;;;;0.68;0.68;;;;;21.10;96417.00;;;;5137976;27;20213;-59
2023/08/22 02:28:44;;;;;;;1.60;1.50;;;;;21.00;96425.00;;;;5136940;27;20193;-59
2023/08/22 02:31:12;;;;;;;1.50;1.40;;;;;21.00;96416.00;;;;5135815;27;20569;-59
2023/08/22 02:33:39;;;;;;;1.23;1.13;;;;;21.00;96414.00;;;;5136037;27;20198;-59
2023/08/22 02:36:07;;;;;;;1.63;1.52;;;;;21.00;96409.00;;;;5135639;27;20209;-59
2023/08/22 02:38:35;;;;;;;1.17;1.17;;;;;21.00;96411.00;;;;5135676;27;20668;-59
2023/08/22 02:41:03;;;;;;;1.98;1.33;;;;;20.90;96416.00;;;;5135696;27;20189;-60
2023/08/22 02:43:31;;;;;;;1.30;1.25;;;;;21.00;96415.00;;;;5135629;27;20200;-59
2023/08/22 02:46:00;;;;;;;1.42;1.33;;;;;21.00;96419.00;;;;5135375;27;20262;-59
2023/08/22 02:48:27;;;;;;;2.65;2.00;;;;;21.10;96417.00;;;;5135345;27;20189;-59
2023/08/22 02:50:54;;;;;;;1.27;1.27;;;;;21.00;96416.00;;;;5135277;27;20348;-59
2023/08/22 02:53:22;;;;;;;1.27;1.27;;;;;21.00;96421.00;;;;5135476;27;20201;-59
2023/08/22 02:55:50;;;;;;;0.80;0.80;;;;;20.90;96415.00;;;;5134560;27;20550;-59
2023/08/22 02:58:17;;;;;;;1.85;1.75;;;;;20.80;96412.00;;;;5135144;27;20238;-59
2023/08/22 03:00:46;;;;;;;15.98;2.80;;;;;20.70;96414.00;;;;5135554;27;20232;-59
2023/08/22 03:03:15;;;;;;;1.92;1.83;;;;;20.70;96411.00;;;;5133757;27;20198;-59
2023/08/22 03:05:43;;;;;;;1.83;1.52;;;;;20.80;96409.00;;;;5133622;27;20201;-59
2023/08/22 03:08:10;;;;;;;2.40;1.73;;;;;20.80;96418.00;;;;5134928;27;20189;-59
2023/08/22 03:10:38;;;;;;;1.73;1.58;;;;;20.90;96405.00;;;;5135473;27;20213;-60
2023/08/22 03:13:05;;;;;;;1.70;1.60;;;;;20.80;96410.00;;;;5135782;27;20194;-59
2023/08/22 03:15:33;;;;;;;1.40;1.30;;;;;20.60;96406.00;;;;5135000;27;20185;-59
2023/08/22 03:18:01;;;;;;;1.70;1.60;;;;;20.50;96413.00;;;;5135450;27;20212;-59
2023/08/22 03:20:29;;;;;;;0.80;0.80;;;;;20.30;96412.00;;;;5134966;27;20186;-59
2023/08/22 03:22:57;;;;;;;2.05;1.85;;;;;20.30;96426.00;;;;5135231;27;20194;-59
2023/08/22 03:25:24;;;;;;;1.77;1.67;;;;;20.30;96420.00;;;;5134713;27;20189;-59
2023/08/22 03:27:52;;;;;;;0.98;0.93;;;;;20.40;96418.00;;;;5134624;27;20205;-61
2023/08/22 03:30:19;;;;;;;1.95;1.48;;;;;20.40;96401.00;;;;5135030;27;20299;-59
2023/08/22 03:32:46;;;;;;;1.67;1.58;;;;;20.40;96399.00;;;;5134634;27;20683;-59
2023/08/22 03:35:14;;;;;;;1.25;1.25;;;;;20.40;96400.00;;;;5133312;27;20551;-59
2023/08/22 03:37:43;;;;;;;1.70;1.60;;;;;20.40;96400.00;;;;5133350;27;20623;-59
2023/08/22 03:40:11;;;;;;;1.10;1.10;;;;;20.50;96402.00;;;;5135259;27;20186;-59
2023/08/22 03:42:38;;;;;;;1.63;1.52;;;;;20.50;96407.00;;;;5134803;27;20677;-59
2023/08/22 03:45:06;;;;;;;1.00;1.00;;;;;20.50;96409.00;;;;5134448;27;20546;-60
2023/08/22 03:47:34;;;;;;;1.33;1.30;;;;;20.30;96407.00;;;;5134342;27;20756;-59
2023/08/22 03:50:01;;;;;;;2.05;1.70;;;;;20.20;96411.00;;;;5134351;27;20216;-59
2023/08/22 03:52:29;;;;;;;1.77;1.67;;;;;20.20;96411.00;;;;5134399;27;20201;-59
2023/08/22 03:54:58;;;;;;;1.20;1.20;;;;;20.00;96407.00;;;;5134787;27;20637;-59
2023/08/22 03:57:25;;;;;;;1.85;1.75;;;;;20.00;96407.00;;;;5134346;27;20221;-59
2023/08/22 03:59:53;;;;;;;1.42;1.33;;;;;20.00;96405.00;;;;5134295;27;20215;-59
2023/08/22 04:02:20;;;;;;;2.72;1.85;;;;;19.90;96399.00;;;;5134636;28;20189;-59
2023/08/22 04:04:47;;;;;;;6.22;2.42;;;;;19.90;96406.00;;;;5134531;28;20539;-59
2023/08/22 04:07:15;;;;;;;1.40;1.30;;;;;20.10;96401.00;;;;5135786;27;20216;-59
2023/08/22 04:09:42;;;;;;;1.65;1.55;;;;;20.10;96398.00;;;;5138534;27;20660;-59
2023/08/22 04:12:11;;;;;;;1.30;1.23;;;;;20.10;96407.00;;;;5138878;27;20189;-59
2023/08/22 04:14:39;;;;;;;1.25;1.25;;;;;20.00;96408.00;;;;5138475;27;20610;-59
2023/08/22 04:17:06;;;;;;;1.40;1.33;;;;;20.00;96413.00;;;;5138286;27;20212;-59
2023/08/22 04:19:33;;;;;;;2.42;2.22;;;;;20.10;96416.00;;;;5138588;27;20195;-59
2023/08/22 04:22:01;;;;;;;0.98;0.98;;;;;20.10;96416.00;;;;5138258;27;20196;-59
2023/08/22 04:24:28;;;;;;;1.73;1.63;;;;;20.00;96423.00;;;;5138310;27;20194;-59
2023/08/22 04:26:56;;;;;;;1.63;1.52;;;;;19.90;96418.00;;;;5138125;27;20205;-59
2023/08/22 04:29:24;;;;;;;1.45;1.35;;;;;19.90;96413.00;;;;5138527;27;20668;-59
2023/08/22 04:31:52;;;;;;;1.48;1.40;;;;;19.80;96414.00;;;;5137966;27;20210;-59
2023/08/22 04:34:19;;;;;;;2.22;1.88;;;;;19.70;96418.00;;;;5138022;27;20664;-59
2023/08/22 04:36:47;;;;;;;1.38;1.27;;;;;19.70;96421.00;;;;5137964;27;20216;-59
2023/08/22 04:39:14;;;;;;;1.92;1.83;;;;;19.80;96425.00;;;;5136652;27;20197;-59
2023/08/22 04:41:42;;;;;;;1.90;1.80;;;;;19.80;96426.00;;;;5138333;27;20193;-59
2023/08/22 04:44:10;;;;;;;1.17;1.17;;;;;19.80;96425.00;;;;5138097;27;20273;-59
2023/08/22 04:46:39;;;;;;;1.35;1.33;;;;;19.80;96417.00;;;;5137642;27;20220;-59
2023/08/22 04:49:06;;;;;;;0.75;0.75;;;;;19.90;96418.00;;;;5137682;27;20192;-59
2023/08/22 04:51:33;;;;;;;0.98;0.98;;;;;19.90;96420.00;;;;5137602;27;20236;-57
2023/08/22 04:54:01;;;;;;;1.40;1.33;;;;;19.90;96417.00;;;;5137622;27;20686;-57
2023/08/22 04:56:28;;;;;;;1.65;1.55;;;;;19.90;96424.00;;;;5137417;27;20209;-59
2023/08/22 04:58:56;;;;;;;1.27;1.02;;;;;20.00;96425.00;;;;5137447;27;20189;-57
2023/08/22 05:01:23;;;;;;;1.20;1.20;;;;;20.00;96429.00;;;;5137339;27;20186;-59
2023/08/22 05:03:52;;;;;;;1.27;1.27;;;;;20.10;96427.00;;;;5137337;27;20189;-59
2023/08/22 05:06:19;;;;;;;1.48;1.48;;;;;20.10;96428.00;;;;5137565;27;20574;-58
2023/08/22 05:08:47;;;;;;;1.05;1.05;;;;;20.10;96437.00;;;;5137463;27;20189;-58
2023/08/22 05:11:14;;;;;;;1.08;1.08;;;;;20.00;96435.00;;;;5137502;27;20217;-57
2023/08/22 05:13:42;;;;;;;1.58;1.48;;;;;20.00;96437.00;;;;5137123;27;20200;-59
2023/08/22 05:16:09;;;;;;;1.73;1.63;;;;;20.00;96433.00;;;;5137787;27;20571;-58
2023/08/22 05:18:36;;;;;;;1.33;1.33;;;;;20.00;96422.00;;;;5136386;27;20189;-58
2023/08/22 05:21:06;;;;;;;1.38;1.30;;;;;20.10;96428.00;;;;5136916;27;20218;-57
2023/08/22 05:23:35;;;;;;;1.60;1.50;;;;;20.10;96430.00;;;;5137202;27;20273;-58
2023/08/22 05:26:03;;;;;;;1.55;1.45;;;;;20.10;96427.00;;;;5136846;27;20263;-59
2023/08/22 05:28:30;;;;;;;1.40;1.35;;;;;20.20;96434.00;;;;5136711;27;20288;-57
2023/08/22 05:30:58;;;;;;;3.80;1.63;;;;;20.20;96425.00;;;;5136767;27;20240;-58
2023/08/22 05:33:25;;;;;;;1.13;1.13;;;;;20.20;96430.00;;;;5136598;27;20680;-58
2023/08/22 05:35:52;;;;;;;2.03;1.77;;;;;20.30;96436.00;;;;5136657;27;20254;-57
2023/08/22 05:38:21;;;;;;;2.10;2.00;;;;;20.50;96434.00;;;;5136711;27;20193;-58
2023/08/22 05:40:49;;;;;;;0.93;0.93;;;;;20.50;96434.00;;;;5136438;27;20255;-58
2023/08/22 05:43:17;;;;;;;1.25;1.25;;;;;20.60;96434.00;;;;5136271;27;20197;-57
2023/08/22 05:45:44;;;;;;;1.52;1.48;;;;;20.70;96435.00;;;;5136272;27;20200;-58
2023/08/22 05:48:11;;;;;;;1.00;1.00;;;;;20.70;96429.00;;;;5136613;27;20624;-58
2023/08/22 05:50:39;;;;;;;1.33;1.33;;;;;20.70;96433.00;;;;5136297;27;20213;-58
2023/08/22 05:53:06;;;;;;;1.27;1.17;;;;;20.70;96432.00;;;;5136143;27;20189;-58
2023/08/22 05:55:35;;;;;;;1.48;1.38;;;;;20.80;96437.00;;;;5136261;27;20197;-58
2023/08/22 05:58:02;;;;;;;1.13;1.13;;;;;20.80;96429.00;;;;5136237;27;20211;-58
2023/08/22 06:00:30;;;;;;;2.83;1.77;;;;;20.90;96440.00;;;;5136340;27;20185;-58
2023/08/22 06:02:58;;;;;;;4.50;1.13;;;;;20.90;96440.00;;;;5136176;27;20185;-58
2023/08/22 06:05:25;;;;;;;1.67;1.58;;;;;20.90;96438.00;;;;5135927;27;20231;-60
2023/08/22 06:07:53;;;;;;;1.60;1.50;;;;;21.00;96433.00;;;;5135955;27;20700;-59
2023/08/22 06:10:22;;;;;;;2.25;1.65;;;;;21.20;96443.00;;;;5136259;27;20189;-58
2023/08/22 06:12:51;;;;;;;2.47;2.05;;;;;21.20;96430.00;;;;5136087;27;20268;-58
2023/08/22 06:15:18;;;;;;;1.27;1.27;;;;;21.30;96440.00;;;;5136748;27;20198;-58
2023/08/22 06:17:46;;;;;;;3.88;1.67;;;;;21.40;96441.00;;;;5136352;27;20213;-58
2023/08/22 06:20:14;;;;;;;1.58;1.48;;;;;21.40;96438.00;;;;5136134;27;20200;-59
2023/08/22 06:22:42;;;;;;;2.03;1.92;;;;;21.50;96439.00;;;;5136145;27;20550;-58
2023/08/22 06:25:10;;;;;;;1.13;1.13;;;;;21.40;96435.00;;;;5136461;27;20193;-58
2023/08/22 06:27:37;;;;;;;1.20;1.13;;;;;21.70;96439.00;;;;5135953;27;20518;-58
2023/08/22 06:30:07;;;;;;;1.33;1.23;;;;;21.70;96438.00;;;;5133759;27;20193;-58
2023/08/22 06:32:35;;;;;;;1.17;1.17;;;;;21.80;96448.00;;;;5135395;27;20208;-58
2023/08/22 06:35:03;;;;;;;2.05;1.75;;;;;22.00;96438.00;;;;5135629;27;20203;-58
2023/08/22 06:37:31;;;;;;;5.68;1.42;;;;;22.10;96437.00;;;;5135895;27;20525;-58
2023/08/22 06:39:58;;;;;;;2.50;1.73;;;;;22.20;96441.00;;;;5135650;27;20193;-58
2023/08/22 06:42:26;;;;;;;1.73;1.60;;;;;22.30;96439.00;;;;5135747;27;20186;-59
2023/08/22 06:44:53;;;;;;;4.63;4.07;;;;;22.40;96437.00;;;;5135418;27;20190;-59
2023/08/22 06:47:22;;;;;;;2.00;1.90;;;;;22.50;96450.00;;;;5135401;27;20209;-58
2023/08/22 06:49:50;;;;;;;1.50;1.40;;;;;22.60;96446.00;;;;5135684;27;20193;-59
2023/08/22 06:52:18;;;;;;;1.38;1.27;;;;;22.70;96448.00;;;;5135469;27;20270;-59
2023/08/22 06:54:45;;;;;;;1.15;1.05;;;;;22.50;96439.00;;;;5135443;27;20653;-59
2023/08/22 06:57:13;;;;;;;1.15;1.13;;;;;22.70;96448.00;;;;5135130;27;20205;-59
2023/08/22 06:59:40;;;;;;;2.10;1.67;;;;;22.80;96446.00;;;;5135399;27;20189;-59
2023/08/22 07:02:07;;;;;;;1.58;1.48;;;;;22.90;96443.00;;;;5135133;27;20189;-59
2023/08/22 07:04:36;;;;;;;1.73;1.58;;;;;22.90;96452.00;;;;5135560;27;20197;-59
2023/08/22 07:07:04;;;;;;;3.58;1.58;;;;;23.10;96446.00;;;;5135370;27;20220;-60
2023/08/22 07:09:31;;;;;;;0.85;0.85;;;;;23.30;96454.00;;;;5135379;27;20197;-58
2023/08/22 07:11:59;;;;;;;0.85;0.85;;;;;23.40;96448.00;;;;5135261;27;20216;-59
2023/08/22 07:14:27;;;;;;;1.05;1.05;;;;;23.50;96455.00;;;;5135127;27;20196;-59
2023/08/22 07:16:54;;;;;;;1.48;1.40;;;;;23.60;96448.00;;;;5134914;27;20240;-59
2023/08/22 07:19:21;;;;;;;1.58;1.48;;;;;23.70;96449.00;;;;5134500;27;20197;-59
2023/08/22 07:21:50;;;;;;;6.45;1.10;;;;;23.80;96445.00;;;;5134403;27;20181;-59
2023/08/22 07:24:18;;;;;;;1.00;1.00;;;;;23.90;96445.00;;;;5134631;27;20200;-59
2023/08/22 07:26:45;;;;;;;1.38;1.25;;;;;23.80;96449.00;;;;5135065;27;20209;-59
2023/08/22 07:29:13;;;;;;;2.95;2.65;;;;;23.90;96448.00;;;;5135107;27;20192;-59
2023/08/22 07:31:40;;;;;;;1.13;1.13;;;;;24.10;96448.00;;;;5134993;27;20251;-59
2023/08/22 07:34:07;;;;;;;1.48;1.38;;;;;24.20;96448.00;;;;5134402;27;20595;-59
2023/08/22 07:36:35;;;;;;;0.93;0.93;;;;;24.30;96448.00;;;;5134281;27;20213;-59
2023/08/22 07:39:04;;;;;;;1.35;1.30;;;;;24.20;96449.00;;;;5134342;27;20201;-59
2023/08/22 07:41:31;;;;;;;1.50;1.40;;;;;24.30;96451.00;;;;5133994;27;20675;-59
2023/08/22 07:43:59;;;;;;;1.13;1.13;;;;;24.50;96452.00;;;;5134205;27;20193;-59
2023/08/22 07:46:26;;;;;;;1.17;1.17;;;;;24.70;96456.00;;;;5134214;27;20209;-60
2023/08/22 07:48:53;;;;;;;1.02;1.00;;;;;24.70;96450.00;;;;5134225;27;20193;-60
2023/08/22 07:51:21;;;;;;;2.65;1.83;;;;;25.00;96451.00;;;;5134364;27;20213;-60
2023/08/22 07:53:48;;;;;;;1.27;1.17;;;;;25.00;96454.00;;;;5134335;27;20193;-59
2023/08/22 07:56:17;;;;;;;1.13;1.05;;;;;25.10;96453.00;;;;5134724;27;20219;-61
2023/08/22 07:58:45;;;;;;;3.05;1.92;;;;;25.30;96455.00;;;;5134470;27;20193;-62
2023/08/22 08:01:12;;;;;;;1.50;1.38;;;;;25.50;96456.00;;;;5134193;27;20216;-62
2023/08/22 08:03:40;;;;;;;1.40;1.33;;;;;25.60;96454.00;;;;5134497;27;20197;-62
2023/08/22 08:06:07;;;;;;;1.38;1.33;;;;;25.80;96460.00;;;;5134414;28;20224;-62
2023/08/22 08:08:35;;;;;;;1.20;1.20;;;;;25.80;96457.00;;;;5134505;28;20207;-60
2023/08/22 08:11:02;;;;;;;1.00;0.98;;;;;26.00;96457.00;;;;5134588;28;20556;-60
2023/08/22 08:13:31;;;;;;;1.13;1.05;;;;;26.10;96464.00;;;;5134311;28;20230;-60
2023/08/22 08:15:59;;;;;;;1.27;1.17;;;;;26.20;96459.00;;;;5134563;28;20281;-60
2023/08/22 08:18:26;;;;;;;0.85;0.85;;;;;26.30;96456.00;;;;5134579;28;20185;-60
2023/08/22 08:20:54;;;;;;;1.77;1.67;;;;;26.30;96458.00;;;;5134213;28;20200;-60
2023/08/22 08:23:21;;;;;;;4.30;3.35;;;;;26.50;96450.00;;;;5134562;28;20243;-61
2023/08/22 08:25:49;;;;;;;1.00;1.00;;;;;26.70;96459.00;;;;5134103;28;20683;-61
2023/08/22 08:28:17;;;;;;;0.75;0.75;;;;;26.70;96458.00;;;;5134124;28;20197;-60
2023/08/22 08:30:45;;;;;;;1.27;1.17;;;;;26.80;96459.00;;;;5134067;28;20194;-60
2023/08/22 08:33:13;;;;;;;0.95;0.95;;;;;26.90;96461.00;;;;5133907;28;20754;-62
2023/08/22 08:35:40;;;;;;;1.70;1.38;;;;;26.90;96459.00;;;;5134421;28;20190;-62
2023/08/22 08:38:08;;;;;;;0.90;0.90;;;;;26.90;96464.00;;;;5134317;28;20294;-62
2023/08/22 08:40:36;;;;;;;1.90;1.80;;;;;26.90;96456.00;;;;5134167;28;20193;-62
2023/08/22 08:43:04;;;;;;;1.50;1.40;;;;;27.10;96460.00;;;;5134195;28;20258;-62
2023/08/22 08:45:34;;;;;;;0.95;0.95;;;;;27.20;96464.00;;;;5132540;28;20237;-62
2023/08/22 08:48:04;;;;;;;1.35;1.30;;;;;27.30;96456.00;;;;5134093;28;20217;-62
2023/08/22 08:50:33;;;;;;;2.13;1.65;;;;;27.30;96457.00;;;;5133645;28;20601;-62
2023/08/22 08:53:01;;;;;;;1.52;1.42;;;;;27.50;96457.00;;;;5133386;27;20266;-62
2023/08/22 08:55:28;;;;;;;1.17;1.13;;;;;27.50;96454.00;;;;5137026;27;20235;-62
2023/08/22 08:57:56;;;;;;;1.52;1.42;;;;;27.60;96456.00;;;;5137484;27;20213;-62
2023/08/22 09:00:24;;;;;;;1.23;1.23;;;;;27.70;96455.00;;;;5137585;27;20639;-62
2023/08/22 09:02:52;;;;;;;1.20;1.15;;;;;27.80;96459.00;;;;5137671;27;20190;-62
2023/08/22 09:05:22;;;;;;;1.42;1.33;;;;;27.90;96455.00;;;;5137284;27;20190;-62
2023/08/22 09:07:50;;;;;;;1.70;1.60;;;;;28.10;96450.00;;;;5137392;27;20213;-62
2023/08/22 09:10:34;;;;;;;1.00;1.00;;;;;28.20;96445.00;;;;5137710;27;20192;-62
2023/08/22 09:13:04;;;;;;;0.82;0.82;;;;;28.20;96451.00;;;;5137066;27;20250;-62
2023/08/22 09:15:31;;;;;;;1.08;1.08;;;;;28.30;96448.00;;;;5137088;27;20217;-62
2023/08/22 09:17:59;;;;;;;1.17;1.17;;;;;28.30;96454.00;;;;5136898;27;20232;-62
2023/08/22 09:20:30;;;;;;;3.28;1.45;;;;;28.40;96447.00;;;;5137648;27;20193;-61
2023/08/22 09:22:57;;;;;;;12.98;1.25;;;;;28.50;96452.00;;;;5136798;27;20227;-61
2023/08/22 09:25:39;;;;;;;1.30;1.30;;;;;28.60;96446.00;;;;5136822;27;20291;-60
2023/08/22 09:28:11;;;;;;;1.58;1.48;;;;;28.60;96446.00;;;;5137104;27;20185;-60
2023/08/22 09:30:46;;;;;;;1.45;1.35;;;;;28.60;96440.00;;;;5136773;27;20197;-60
2023/08/22 09:33:14;;;;;;;1.25;1.25;;;;;28.80;96441.00;;;;5136912;27;20201;-60
2023/08/22 09:35:42;;;;;;;2.25;2.05;;;;;28.80;96444.00;;;;5136589;27;20242;-61
2023/08/22 09:38:11;;;;;;;1.05;1.05;;;;;28.90;96440.00;;;;5136625;27;20189;-61
2023/08/22 09:40:51;;;;;;;1.35;1.35;;;;;29.00;96438.00;;;;5136489;27;20194;-60
2023/08/22 09:43:20;;;;;;;1.10;1.10;;;;;29.00;96432.00;;;;5137303;27;20208;-61
2023/08/22 09:45:49;;;;;;;1.52;1.42;;;;;29.30;96439.00;;;;5137086;27;20186;-61
2023/08/22 09:48:23;;;;;;;1.33;1.33;;;;;29.40;96439.00;;;;5136993;27;20593;-61
2023/08/22 09:50:57;;;;;;;7.32;1.58;;;;;29.30;96437.00;;;;5136928;27;20589;-61
2023/08/22 09:53:26;;;;;;;3.65;1.50;;;;;29.60;96435.00;;;;5136598;27;20749;-61
2023/08/22 09:55:54;;;;;;;1.67;1.58;;;;;29.80;96432.00;;;;5136246;27;20254;-61
2023/08/22 09:58:22;;;;;;;1.25;1.25;;;;;30.00;96427.00;;;;5136259;27;20194;-61
2023/08/22 10:00:51;;;;;;;1.05;1.05;;;;;30.20;96432.00;;;;5136470;27;20197;-62
2023/08/22 10:03:18;;;;;;;0.95;0.95;;;;;30.30;96423.00;;;;5136459;27;20188;-60
2023/08/22 10:05:47;;;;;;;1.20;1.13;;;;;30.40;96425.00;;;;5135725;27;20246;-63
2023/08/22 10:08:15;;;;;;;1.48;0.98;;;;;30.60;96436.00;;;;5136628;27;20189;-61
2023/08/22 10:10:47;;;;;;;1.02;1.02;;;;;30.40;96439.00;;;;5136358;27;20304;-60
2023/08/22 10:13:15;;;;;;;1.10;1.10;;;;;30.10;96442.00;;;;5136048;27;20246;-60
2023/08/22 10:15:44;;;;;;;1.30;1.25;;;;;29.90;96442.00;;;;5136122;27;20197;-60
2023/08/22 10:18:12;;;;;;;1.58;1.48;;;;;29.80;96437.00;;;;5135871;27;20198;-61
2023/08/22 10:20:41;;;;;;;1.45;1.35;;;;;30.00;96430.00;;;;5135796;27;20194;-60
2023/08/22 10:23:09;;;;;;;0.85;0.85;;;;;30.00;96424.00;;;;5135720;27;20234;-60
2023/08/22 10:25:51;;;;;;;1.08;1.05;;;;;29.80;96429.00;;;;5134219;27;20235;-61
2023/08/22 10:28:19;;;;;;;1.00;1.00;;;;;30.00;96396.00;;;;5135511;27;20196;-61
2023/08/22 10:31:05;;;;;;;0.80;0.80;;;;;30.00;96430.00;;;;5135906;27;20196;-60
2023/08/22 10:33:33;;;;;;;2.00;1.80;;;;;30.10;96421.00;;;;5135568;27;20632;-61
2023/08/22 10:36:04;;;;;;;1.33;1.25;;;;;30.20;96413.00;;;;5135483;27;20210;-61
2023/08/22 10:38:54;;;;;;;1.42;1.25;;;;;30.30;96425.00;;;;5135387;27;20186;-61
2023/08/22 10:41:45;;;;;;;0.90;0.90;;;;;30.30;96428.00;;;;5135661;27;20186;-61
2023/08/22 10:44:18;;;;;;;1.35;1.25;;;;;30.40;96424.00;;;;5134071;27;20193;-61
2023/08/22 10:47:05;;;;;;;2.03;1.83;;;;;30.30;96425.00;;;;5135553;27;20217;-60
2023/08/22 10:49:34;;;;;;;1.00;1.00;;;;;30.20;96423.00;;;;5133941;27;20193;-60
2023/08/22 10:52:06;;;;;;;1.52;1.25;;;;;30.20;96429.00;;;;5135625;27;20197;-60
2023/08/22 10:54:34;;;;;;;1.50;1.40;;;;;30.40;96426.00;;;;5135045;27;20201;-60
2023/08/22 10:57:21;;;;;;;2.38;1.42;;;;;30.50;96424.00;;;;5134928;27;20714;-60
2023/08/22 10:59:56;;;;;;;1.60;1.50;;;;;30.50;96420.00;;;;5135141;27;20195;-60
2023/08/22 11:02:28;;;;;;;4.18;1.40;;;;;30.40;96409.00;;;;5135436;27;20189;-60
2023/08/22 11:04:57;;;;;;;0.90;0.90;;;;;30.50;96430.00;;;;5134991;27;20227;-60
2023/08/22 11:07:26;;;;;;;1.08;1.08;;;;;30.50;96426.00;;;;5135412;27;20212;-61
2023/08/22 11:09:55;;;;;;;2.20;1.25;;;;;30.80;96432.00;;;;5135181;27;20640;-61
2023/08/22 11:12:24;;;;;;;1.20;1.13;;;;;31.10;96407.00;;;;5134790;27;20206;-60
2023/08/22 11:14:53;;;;;;;2.72;1.00;;;;;31.30;96395.00;;;;5134930;27;20192;-60
2023/08/22 11:17:22;;;;;;;3.13;1.42;;;;;31.70;96393.00;;;;5134083;27;20665;-60
2023/08/22 11:19:53;;;;;;;0.85;0.85;;;;;32.00;96416.00;;;;5135089;27;20197;-60
2023/08/22 11:22:20;;;;;;;1.00;1.00;;;;;31.70;96400.00;;;;5134820;27;20180;-60
2023/08/22 11:24:51;;;;;;;0.93;0.93;;;;;31.40;96398.00;;;;5134559;27;20190;-60
2023/08/22 11:27:19;;;;;;;0.95;0.95;;;;;31.30;96389.00;;;;5134462;27;20213;-60
2023/08/22 11:29:50;;;;;;;7.43;0.93;;;;;30.50;96410.00;;;;5134483;27;20193;-60
2023/08/22 11:32:21;;;;;;;1.55;0.98;;;;;31.40;96393.00;;;;5134765;27;20221;-60
2023/08/22 11:34:51;;;;;;;1.95;1.30;;;;;32.00;96389.00;;;;5134671;27;20189;-60
2023/08/22 11:37:18;;;;;;;0.80;0.80;;;;;32.50;96389.00;;;;5134272;27;20329;-60
2023/08/22 11:39:49;;;;;;;1.52;1.45;;;;;32.50;96389.00;;;;5134423;27;20189;-60
2023/08/22 11:42:17;;;;;;;7.65;1.42;;;;;32.70;96407.00;;;;5134257;27;20204;-60
2023/08/22 11:45:05;;;;;;;1.13;1.13;;;;;33.00;96408.00;;;;5134669;27;20217;-60
2023/08/22 11:47:40;;;;;;;1.08;1.08;;;;;32.80;96389.00;;;;5134181;27;20214;-60
2023/08/22 11:50:12;;;;;;;1.08;1.08;;;;;33.20;96402.00;;;;5134926;27;20581;-60
2023/08/22 11:52:42;;;;;;;1.15;1.13;;;;;32.70;96407.00;;;;5134249;27;20197;-60
2023/08/22 11:55:11;;;;;;;1.17;1.15;;;;;32.30;96408.00;;;;5134073;27;20659;-60
2023/08/22 11:57:40;;;;;;;1.10;1.10;;;;;32.30;96405.00;;;;5134259;27;20227;-60
2023/08/22 12:00:13;;;;;;;1.00;1.00;;;;;32.40;96411.00;;;;5134238;27;20709;-60
2023/08/22 12:02:47;;;;;;;1.27;1.20;;;;;32.40;96395.00;;;;5134399;27;20664;-61
2023/08/22 12:05:30;;;;;;;1.13;1.13;;;;;32.30;96388.00;;;;5134011;27;20554;-61
2023/08/22 12:07:58;;;;;;;1.00;1.00;;;;;32.30;96386.00;;;;5134151;28;20206;-61
2023/08/22 12:10:25;;;;;;;1.02;1.02;;;;;33.10;96385.00;;;;5134021;28;20261;-61
2023/08/22 12:12:53;;;;;;;1.60;1.38;;;;;32.80;96402.00;;;;5134156;28;20204;-61
2023/08/22 12:15:22;;;;;;;1.25;1.10;;;;;32.60;96385.00;;;;5133941;28;20189;-61
2023/08/22 12:17:49;;;;;;;1.30;1.20;;;;;32.50;96405.00;;;;5133747;28;20209;-61
2023/08/22 12:20:17;;;;;;;1.17;1.17;;;;;32.10;96407.00;;;;5132591;28;20670;-61
2023/08/22 12:22:44;;;;;;;1.50;1.33;;;;;32.10;96396.00;;;;5133921;28;20630;-61
2023/08/22 12:25:12;;;;;;;1.17;1.17;;;;;32.10;96377.00;;;;5134878;28;20193;-61